sensor_id;sensor_type;location;lat;lon;timestamp;pressure;altitude;pressure_sealevel;temperature;humidity
77702;BME280;66868;42.708;23.404;2023-04-24T00:00:39;94906.78;;;11.84;66.61
77702;BME280;66868;42.708;23.404;2023-04-24T00:03:06;94922.44;;;11.90;67.38
77702;BME280;66868;42.708;23.404;2023-04-24T00:05:32;94922.22;;;11.93;66.30
77702;BME280;66868;42.708;23.404;2023-04-24T00:07:58;94905.19;;;11.83;66.85
77702;BME280;66868;42.708;23.404;2023-04-24T00:10:23;94913.91;;;11.91;68.01
77702;BME280;66868;42.708;23.404;2023-04-24T00:12:48;94909.03;;;11.88;68.54
77702;BME280;66868;42.708;23.404;2023-04-24T00:15:14;94891.19;;;11.77;67.97
77702;BME280;66868;42.708;23.404;2023-04-24T00:17:39;94907.44;;;11.87;68.30
77702;BME280;66868;42.708;23.404;2023-04-24T00:20:05;94870.25;;;11.61;68.94
77702;BME280;66868;42.708;23.404;2023-04-24T00:22:32;94894.91;;;11.72;69.01
77702;BME280;66868;42.708;23.404;2023-04-24T00:24:57;94889.94;;;11.70;68.57
77702;BME280;66868;42.708;23.404;2023-04-24T00:27:23;94881.63;;;11.56;69.18
77702;BME280;66868;42.708;23.404;2023-04-24T00:29:48;94888.81;;;11.62;69.90
77702;BME280;66868;42.708;23.404;2023-04-24T00:32:14;94885.91;;;11.55;69.83
77702;BME280;66868;42.708;23.404;2023-04-24T00:34:47;94885.69;;;11.58;69.84
77702;BME280;66868;42.708;23.404;2023-04-24T00:37:12;94872.91;;;11.47;70.01
77702;BME280;66868;42.708;23.404;2023-04-24T00:39:38;94891.16;;;11.52;69.94
77702;BME280;66868;42.708;23.404;2023-04-24T00:42:03;94879.50;;;11.37;71.32
77702;BME280;66868;42.708;23.404;2023-04-24T00:44:31;94886.91;;;11.40;70.96
77702;BME280;66868;42.708;23.404;2023-04-24T00:46:58;94873.19;;;11.30;70.00
77702;BME280;66868;42.708;23.404;2023-04-24T00:49:24;94902.63;;;11.45;69.10
77702;BME280;66868;42.708;23.404;2023-04-24T00:51:49;94894.19;;;11.44;69.91
77702;BME280;66868;42.708;23.404;2023-04-24T00:54:17;94895.22;;;11.42;69.32
77702;BME280;66868;42.708;23.404;2023-04-24T00:56:43;94898.84;;;11.38;68.81
77702;BME280;66868;42.708;23.404;2023-04-24T00:59:09;94887.28;;;11.34;68.79
77702;BME280;66868;42.708;23.404;2023-04-24T01:01:35;94890.03;;;11.31;69.69
77702;BME280;66868;42.708;23.404;2023-04-24T01:04:01;94876.13;;;11.24;68.88
77702;BME280;66868;42.708;23.404;2023-04-24T01:06:28;94896.22;;;11.27;70.28
77702;BME280;66868;42.708;23.404;2023-04-24T01:08:54;94888.59;;;11.27;69.77
77702;BME280;66868;42.708;23.404;2023-04-24T01:11:24;94878.94;;;11.19;69.78
77702;BME280;66868;42.708;23.404;2023-04-24T01:13:49;94902.69;;;11.31;71.25
77702;BME280;66868;42.708;23.404;2023-04-24T01:16:15;94890.75;;;11.33;71.06
77702;BME280;66868;42.708;23.404;2023-04-24T01:18:43;94885.56;;;11.34;71.60
77702;BME280;66868;42.708;23.404;2023-04-24T01:21:08;94888.53;;;11.41;71.79
77702;BME280;66868;42.708;23.404;2023-04-24T01:23:34;94886.16;;;11.38;69.79
77702;BME280;66868;42.708;23.404;2023-04-24T01:26:00;94855.75;;;11.25;69.76
77702;BME280;66868;42.708;23.404;2023-04-24T01:28:26;94874.94;;;11.42;70.48
77702;BME280;66868;42.708;23.404;2023-04-24T01:30:52;94875.72;;;11.42;71.65
77702;BME280;66868;42.708;23.404;2023-04-24T01:33:17;94857.81;;;11.33;71.12
77702;BME280;66868;42.708;23.404;2023-04-24T01:35:43;94870.19;;;11.37;73.05
77702;BME280;66868;42.708;23.404;2023-04-24T01:38:08;94867.94;;;11.33;72.13
77702;BME280;66868;42.708;23.404;2023-04-24T01:40:34;94864.16;;;11.26;72.84
77702;BME280;66868;42.708;23.404;2023-04-24T01:43:00;94861.13;;;11.21;72.34
77702;BME280;66868;42.708;23.404;2023-04-24T01:45:25;94862.31;;;11.15;72.35
77702;BME280;66868;42.708;23.404;2023-04-24T01:47:51;94865.88;;;11.13;71.51
77702;BME280;66868;42.708;23.404;2023-04-24T01:50:18;94868.00;;;11.06;71.50
77702;BME280;66868;42.708;23.404;2023-04-24T01:52:43;94832.72;;;10.90;71.21
77702;BME280;66868;42.708;23.404;2023-04-24T01:55:09;94864.53;;;10.94;71.73
77702;BME280;66868;42.708;23.404;2023-04-24T01:57:35;94852.88;;;10.92;70.19
77702;BME280;66868;42.708;23.404;2023-04-24T02:00:01;94857.53;;;10.85;70.74
77702;BME280;66868;42.708;23.404;2023-04-24T02:02:26;94859.16;;;10.86;69.45
77702;BME280;66868;42.708;23.404;2023-04-24T02:04:55;94840.56;;;10.73;69.18
77702;BME280;66868;42.708;23.404;2023-04-24T02:07:20;94853.56;;;10.81;69.35
77702;BME280;66868;42.708;23.404;2023-04-24T02:09:46;94840.75;;;10.70;68.90
77702;BME280;66868;42.708;23.404;2023-04-24T02:12:11;94846.66;;;10.71;69.58
77702;BME280;66868;42.708;23.404;2023-04-24T02:14:36;94788.16;;;10.36;69.08
77702;BME280;66868;42.708;23.404;2023-04-24T02:17:02;94846.22;;;10.64;68.70
77702;BME280;66868;42.708;23.404;2023-04-24T02:19:27;94821.53;;;10.41;69.92
77702;BME280;66868;42.708;23.404;2023-04-24T02:21:53;94832.19;;;10.46;69.46
77702;BME280;66868;42.708;23.404;2023-04-24T02:24:18;94833.81;;;10.47;69.37
77702;BME280;66868;42.708;23.404;2023-04-24T02:26:43;94835.81;;;10.42;70.28
77702;BME280;66868;42.708;23.404;2023-04-24T02:29:09;94841.06;;;10.39;70.19
77702;BME280;66868;42.708;23.404;2023-04-24T02:31:34;94827.97;;;10.32;70.06
77702;BME280;66868;42.708;23.404;2023-04-24T02:34:00;94816.44;;;10.28;69.76
77702;BME280;66868;42.708;23.404;2023-04-24T02:36:25;94836.38;;;10.33;70.21
77702;BME280;66868;42.708;23.404;2023-04-24T02:38:50;94848.13;;;10.34;69.27
77702;BME280;66868;42.708;23.404;2023-04-24T02:41:16;94826.84;;;10.24;69.31
77702;BME280;66868;42.708;23.404;2023-04-24T02:43:41;94837.47;;;10.29;69.04
77702;BME280;66868;42.708;23.404;2023-04-24T02:46:06;94831.97;;;10.22;68.75
77702;BME280;66868;42.708;23.404;2023-04-24T02:48:32;94828.84;;;10.18;68.89
77702;BME280;66868;42.708;23.404;2023-04-24T02:50:57;94817.63;;;10.08;69.60
77702;BME280;66868;42.708;23.404;2023-04-24T02:53:23;94825.75;;;10.13;69.25
77702;BME280;66868;42.708;23.404;2023-04-24T02:55:48;94828.28;;;10.13;70.03
77702;BME280;66868;42.708;23.404;2023-04-24T02:58:14;94829.19;;;10.12;69.95
77702;BME280;66868;42.708;23.404;2023-04-24T03:00:40;94822.69;;;10.08;69.68
77702;BME280;66868;42.708;23.404;2023-04-24T03:03:05;94827.72;;;10.08;69.38
77702;BME280;66868;42.708;23.404;2023-04-24T03:05:32;94836.41;;;10.04;70.77
77702;BME280;66868;42.708;23.404;2023-04-24T03:07:57;94824.69;;;10.03;70.68
77702;BME280;66868;42.708;23.404;2023-04-24T03:10:23;94816.38;;;10.01;69.73
77702;BME280;66868;42.708;23.404;2023-04-24T03:12:48;94829.56;;;10.06;69.55
77702;BME280;66868;42.708;23.404;2023-04-24T03:15:14;94834.63;;;10.06;70.20
77702;BME280;66868;42.708;23.404;2023-04-24T03:17:40;94832.78;;;10.08;71.23
77702;BME280;66868;42.708;23.404;2023-04-24T03:20:06;94832.78;;;10.08;70.42
77702;BME280;66868;42.708;23.404;2023-04-24T03:22:33;94832.63;;;10.11;69.92
77702;BME280;66868;42.708;23.404;2023-04-24T03:24:58;94797.34;;;9.96;70.01
77702;BME280;66868;42.708;23.404;2023-04-24T03:27:24;94813.03;;;10.01;69.93
77702;BME280;66868;42.708;23.404;2023-04-24T03:29:49;94834.41;;;10.09;70.58
77702;BME280;66868;42.708;23.404;2023-04-24T03:32:19;94828.47;;;10.10;70.81
77702;BME280;66868;42.708;23.404;2023-04-24T03:34:44;94842.38;;;10.17;70.82
77702;BME280;66868;42.708;23.404;2023-04-24T03:37:10;94829.56;;;10.06;69.73
77702;BME280;66868;42.708;23.404;2023-04-24T03:39:35;94824.44;;;10.08;69.38
77702;BME280;66868;42.708;23.404;2023-04-24T03:42:00;94827.56;;;10.11;70.85
77702;BME280;66868;42.708;23.404;2023-04-24T03:44:26;94839.47;;;10.24;71.12
77702;BME280;66868;42.708;23.404;2023-04-24T03:46:51;94834.13;;;10.28;70.75
77702;BME280;66868;42.708;23.404;2023-04-24T03:49:17;94848.50;;;10.28;70.27
77702;BME280;66868;42.708;23.404;2023-04-24T03:51:42;94847.72;;;9.99;71.70
77702;BME280;66868;42.708;23.404;2023-04-24T03:54:08;94842.53;;;9.73;72.90
77702;BME280;66868;42.708;23.404;2023-04-24T03:56:33;94838.09;;;9.63;72.84
77702;BME280;66868;42.708;23.404;2023-04-24T03:58:58;94839.72;;;9.78;71.99
77702;BME280;66868;42.708;23.404;2023-04-24T04:01:24;94835.41;;;9.80;71.89
77702;BME280;66868;42.708;23.404;2023-04-24T04:03:49;94816.59;;;9.84;71.92
77702;BME280;66868;42.708;23.404;2023-04-24T04:06:15;94833.72;;;10.07;71.38
77702;BME280;66868;42.708;23.404;2023-04-24T04:08:40;94821.53;;;10.00;72.62
77702;BME280;66868;42.708;23.404;2023-04-24T04:11:06;94837.50;;;10.14;72.29
77702;BME280;66868;42.708;23.404;2023-04-24T04:13:31;94848.72;;;9.96;75.04
77702;BME280;66868;42.708;23.404;2023-04-24T04:15:56;94845.13;;;9.72;76.96
77702;BME280;66868;42.708;23.404;2023-04-24T04:18:22;94846.56;;;9.76;77.58
77702;BME280;66868;42.708;23.404;2023-04-24T04:20:47;94843.88;;;9.79;77.53
77702;BME280;66868;42.708;23.404;2023-04-24T04:23:12;94837.72;;;9.83;77.08
77702;BME280;66868;42.708;23.404;2023-04-24T04:25:38;94838.97;;;9.90;76.91
77702;BME280;66868;42.708;23.404;2023-04-24T04:28:03;94849.28;;;9.87;77.05
77702;BME280;66868;42.708;23.404;2023-04-24T04:30:29;94841.34;;;9.93;77.11
77702;BME280;66868;42.708;23.404;2023-04-24T04:32:58;94846.78;;;10.14;76.05
77702;BME280;66868;42.708;23.404;2023-04-24T04:35:23;94857.81;;;10.27;75.20
77702;BME280;66868;42.708;23.404;2023-04-24T04:37:50;94850.38;;;10.38;75.49
77702;BME280;66868;42.708;23.404;2023-04-24T04:40:16;94860.94;;;10.45;75.87
77702;BME280;66868;42.708;23.404;2023-04-24T04:42:42;94848.34;;;10.31;74.38
77702;BME280;66868;42.708;23.404;2023-04-24T04:45:11;94858.78;;;10.39;74.56
77702;BME280;66868;42.708;23.404;2023-04-24T04:47:37;94854.63;;;10.38;75.69
77702;BME280;66868;42.708;23.404;2023-04-24T04:50:03;94872.25;;;10.39;76.18
77702;BME280;66868;42.708;23.404;2023-04-24T04:52:29;94869.25;;;10.47;75.00
77702;BME280;66868;42.708;23.404;2023-04-24T04:54:55;94874.75;;;10.53;74.34
77702;BME280;66868;42.708;23.404;2023-04-24T04:57:20;94874.81;;;10.52;74.13
77702;BME280;66868;42.708;23.404;2023-04-24T04:59:45;94876.47;;;10.53;74.60
77702;BME280;66868;42.708;23.404;2023-04-24T05:02:11;94873.44;;;10.34;75.24
77702;BME280;66868;42.708;23.404;2023-04-24T05:04:36;94863.59;;;10.15;76.14
77702;BME280;66868;42.708;23.404;2023-04-24T05:07:02;94876.31;;;10.13;75.94
77702;BME280;66868;42.708;23.404;2023-04-24T05:09:28;94886.13;;;10.19;75.55
77702;BME280;66868;42.708;23.404;2023-04-24T05:11:54;94883.66;;;10.18;76.40
77702;BME280;66868;42.708;23.404;2023-04-24T05:14:20;94877.81;;;10.03;78.58
77702;BME280;66868;42.708;23.404;2023-04-24T05:16:46;94878.16;;;10.11;78.74
77702;BME280;66868;42.708;23.404;2023-04-24T05:19:11;94878.16;;;10.26;79.22
77702;BME280;66868;42.708;23.404;2023-04-24T05:21:39;94872.91;;;10.14;78.77
77702;BME280;66868;42.708;23.404;2023-04-24T05:24:05;94876.44;;;10.26;79.30
77702;BME280;66868;42.708;23.404;2023-04-24T05:26:30;94862.94;;;10.40;77.72
77702;BME280;66868;42.708;23.404;2023-04-24T05:28:55;94869.34;;;10.72;78.25
77702;BME280;66868;42.708;23.404;2023-04-24T05:31:21;94875.03;;;10.88;76.61
77702;BME280;66868;42.708;23.404;2023-04-24T05:33:46;94879.34;;;11.00;76.32
77702;BME280;66868;42.708;23.404;2023-04-24T05:36:12;94860.69;;;11.01;76.27
77702;BME280;66868;42.708;23.404;2023-04-24T05:38:52;94844.91;;;11.11;74.82
77702;BME280;66868;42.708;23.404;2023-04-24T05:41:18;94872.50;;;11.40;73.67
77702;BME280;66868;42.708;23.404;2023-04-24T05:43:43;94875.56;;;11.45;72.61
77702;BME280;66868;42.708;23.404;2023-04-24T05:46:08;94880.22;;;11.64;71.15
77702;BME280;66868;42.708;23.404;2023-04-24T05:48:34;94879.09;;;11.68;71.89
77702;BME280;66868;42.708;23.404;2023-04-24T05:50:59;94869.66;;;11.58;71.94
77702;BME280;66868;42.708;23.404;2023-04-24T05:53:25;94865.63;;;11.55;71.96
77702;BME280;66868;42.708;23.404;2023-04-24T05:55:50;94866.19;;;11.71;73.51
77702;BME280;66868;42.708;23.404;2023-04-24T05:58:15;94870.47;;;11.71;74.41
77702;BME280;66868;42.708;23.404;2023-04-24T06:00:41;94860.97;;;11.74;73.40
77702;BME280;66868;42.708;23.404;2023-04-24T06:03:08;94873.69;;;11.98;71.88
77702;BME280;66868;42.708;23.404;2023-04-24T06:05:33;94876.16;;;12.00;72.76
77702;BME280;66868;42.708;23.404;2023-04-24T06:08:00;94872.28;;;12.07;72.58
77702;BME280;66868;42.708;23.404;2023-04-24T06:10:25;94862.63;;;12.12;71.82
77702;BME280;66868;42.708;23.404;2023-04-24T06:12:50;94883.09;;;12.34;70.54
77702;BME280;66868;42.708;23.404;2023-04-24T06:15:16;94876.25;;;12.47;70.13
77702;BME280;66868;42.708;23.404;2023-04-24T06:17:41;94869.94;;;12.53;69.54
77702;BME280;66868;42.708;23.404;2023-04-24T06:20:07;94876.13;;;12.72;69.13
77702;BME280;66868;42.708;23.404;2023-04-24T06:22:33;94860.22;;;12.81;68.25
77702;BME280;66868;42.708;23.404;2023-04-24T06:24:59;94887.34;;;13.05;67.51
77702;BME280;66868;42.708;23.404;2023-04-24T06:27:25;94872.06;;;13.17;66.46
77702;BME280;66868;42.708;23.404;2023-04-24T06:29:51;94878.47;;;13.34;65.60
77702;BME280;66868;42.708;23.404;2023-04-24T06:32:23;94868.06;;;13.37;65.17
77702;BME280;66868;42.708;23.404;2023-04-24T06:34:49;94865.88;;;13.55;64.72
77702;BME280;66868;42.708;23.404;2023-04-24T06:37:15;94875.97;;;13.79;64.84
77702;BME280;66868;42.708;23.404;2023-04-24T06:39:41;94875.28;;;13.77;64.93
77702;BME280;66868;42.708;23.404;2023-04-24T06:42:06;94877.63;;;13.91;63.72
77702;BME280;66868;42.708;23.404;2023-04-24T06:44:34;94890.31;;;14.02;62.62
77702;BME280;66868;42.708;23.404;2023-04-24T06:47:05;94885.59;;;14.08;62.16
77702;BME280;66868;42.708;23.404;2023-04-24T06:49:31;94886.72;;;14.15;62.06
77702;BME280;66868;42.708;23.404;2023-04-24T06:51:56;94893.81;;;14.23;62.07
77702;BME280;66868;42.708;23.404;2023-04-24T06:54:21;94882.91;;;14.32;61.90
77702;BME280;66868;42.708;23.404;2023-04-24T06:56:47;94888.94;;;14.42;61.66
77702;BME280;66868;42.708;23.404;2023-04-24T06:59:13;94885.44;;;14.54;61.32
77702;BME280;66868;42.708;23.404;2023-04-24T07:01:39;94881.47;;;14.73;61.37
77702;BME280;66868;42.708;23.404;2023-04-24T07:04:04;94875.63;;;14.82;60.44
77702;BME280;66868;42.708;23.404;2023-04-24T07:06:30;94887.91;;;14.88;59.17
77702;BME280;66868;42.708;23.404;2023-04-24T07:08:56;94887.47;;;14.83;58.33
77702;BME280;66868;42.708;23.404;2023-04-24T07:11:22;94858.50;;;14.84;59.13
77702;BME280;66868;42.708;23.404;2023-04-24T07:13:47;94877.16;;;15.05;58.47
77702;BME280;66868;42.708;23.404;2023-04-24T07:16:13;94879.44;;;15.19;58.96
77702;BME280;66868;42.708;23.404;2023-04-24T07:18:38;94883.53;;;15.31;58.37
77702;BME280;66868;42.708;23.404;2023-04-24T07:21:04;94866.94;;;15.37;58.14
77702;BME280;66868;42.708;23.404;2023-04-24T07:23:30;94869.19;;;15.51;58.07
77702;BME280;66868;42.708;23.404;2023-04-24T07:25:56;94872.91;;;15.68;57.38
77702;BME280;66868;42.708;23.404;2023-04-24T07:28:21;94859.66;;;15.74;57.62
77702;BME280;66868;42.708;23.404;2023-04-24T07:30:47;94871.41;;;15.86;56.94
77702;BME280;66868;42.708;23.404;2023-04-24T07:33:12;94837.16;;;15.68;56.54
77702;BME280;66868;42.708;23.404;2023-04-24T07:35:38;94856.44;;;15.81;56.32
77702;BME280;66868;42.708;23.404;2023-04-24T07:38:05;94853.78;;;15.83;56.91
77702;BME280;66868;42.708;23.404;2023-04-24T07:40:30;94856.44;;;15.72;56.67
77702;BME280;66868;42.708;23.404;2023-04-24T07:42:56;94857.34;;;15.71;57.25
77702;BME280;66868;42.708;23.404;2023-04-24T07:45:21;94844.00;;;15.58;57.88
77702;BME280;66868;42.708;23.404;2023-04-24T07:47:48;94852.84;;;15.54;57.56
77702;BME280;66868;42.708;23.404;2023-04-24T07:50:15;94840.31;;;15.30;57.90
77702;BME280;66868;42.708;23.404;2023-04-24T07:52:41;94851.25;;;15.41;58.52
77702;BME280;66868;42.708;23.404;2023-04-24T07:55:07;94842.88;;;15.51;58.62
77702;BME280;66868;42.708;23.404;2023-04-24T07:57:32;94841.31;;;15.59;59.16
77702;BME280;66868;42.708;23.404;2023-04-24T07:59:57;94844.53;;;15.61;58.12
77702;BME280;66868;42.708;23.404;2023-04-24T08:02:23;94824.78;;;15.63;57.82
77702;BME280;66868;42.708;23.404;2023-04-24T08:04:52;94842.47;;;15.76;56.84
77702;BME280;66868;42.708;23.404;2023-04-24T08:07:21;94832.25;;;15.76;56.77
77702;BME280;66868;42.708;23.404;2023-04-24T08:09:47;94844.66;;;15.80;56.09
77702;BME280;66868;42.708;23.404;2023-04-24T08:12:12;94807.50;;;15.67;57.23
77702;BME280;66868;42.708;23.404;2023-04-24T08:14:37;94829.59;;;15.87;57.44
77702;BME280;66868;42.708;23.404;2023-04-24T08:17:03;94833.69;;;15.99;57.53
77702;BME280;66868;42.708;23.404;2023-04-24T08:19:28;94820.66;;;16.02;57.08
77702;BME280;66868;42.708;23.404;2023-04-24T08:21:54;94801.47;;;16.08;56.62
77702;BME280;66868;42.708;23.404;2023-04-24T08:24:19;94826.50;;;16.33;54.75
77702;BME280;66868;42.708;23.404;2023-04-24T08:26:45;94820.63;;;16.52;53.84
77702;BME280;66868;42.708;23.404;2023-04-24T08:29:10;94820.13;;;16.58;53.66
77702;BME280;66868;42.708;23.404;2023-04-24T08:31:36;94823.22;;;16.61;54.65
77702;BME280;66868;42.708;23.404;2023-04-24T08:34:01;94797.81;;;16.60;54.52
77702;BME280;66868;42.708;23.404;2023-04-24T08:36:26;94790.28;;;16.58;54.45
77702;BME280;66868;42.708;23.404;2023-04-24T08:38:52;94808.72;;;16.81;54.96
77702;BME280;66868;42.708;23.404;2023-04-24T08:41:18;94812.22;;;16.90;54.08
77702;BME280;66868;42.708;23.404;2023-04-24T08:43:46;94809.53;;;16.91;53.62
77702;BME280;66868;42.708;23.404;2023-04-24T08:46:13;94806.41;;;16.97;53.64
77702;BME280;66868;42.708;23.404;2023-04-24T08:48:39;94794.03;;;17.02;51.51
77702;BME280;66868;42.708;23.404;2023-04-24T08:51:07;94805.03;;;17.22;52.24
77702;BME280;66868;42.708;23.404;2023-04-24T08:53:32;94801.78;;;17.30;52.78
77702;BME280;66868;42.708;23.404;2023-04-24T08:55:58;94787.13;;;17.32;52.57
77702;BME280;66868;42.708;23.404;2023-04-24T08:58:25;94795.56;;;17.51;50.74
77702;BME280;66868;42.708;23.404;2023-04-24T09:00:54;94791.50;;;17.49;51.89
77702;BME280;66868;42.708;23.404;2023-04-24T09:03:20;94787.59;;;17.64;51.33
77702;BME280;66868;42.708;23.404;2023-04-24T09:05:48;94784.03;;;17.75;50.77
77702;BME280;66868;42.708;23.404;2023-04-24T09:08:17;94767.66;;;17.85;50.54
77702;BME280;66868;42.708;23.404;2023-04-24T09:10:44;94782.81;;;18.06;50.78
77702;BME280;66868;42.708;23.404;2023-04-24T09:13:10;94778.00;;;18.21;49.56
77702;BME280;66868;42.708;23.404;2023-04-24T09:15:37;94777.59;;;18.43;49.26
77702;BME280;66868;42.708;23.404;2023-04-24T09:18:02;94781.38;;;18.66;49.36
77702;BME280;66868;42.708;23.404;2023-04-24T09:20:28;94774.84;;;18.89;47.95
77702;BME280;66868;42.708;23.404;2023-04-24T09:22:54;94771.16;;;19.10;46.50
77702;BME280;66868;42.708;23.404;2023-04-24T09:25:25;94744.88;;;19.16;46.88
77702;BME280;66868;42.708;23.404;2023-04-24T09:28:00;94758.25;;;19.45;46.54
77702;BME280;66868;42.708;23.404;2023-04-24T09:30:25;94763.81;;;19.66;46.98
77702;BME280;66868;42.708;23.404;2023-04-24T09:33:09;94758.44;;;19.85;45.48
77702;BME280;66868;42.708;23.404;2023-04-24T09:35:35;94752.81;;;19.90;45.35
77702;BME280;66868;42.708;23.404;2023-04-24T09:38:00;94749.81;;;20.03;46.58
77702;BME280;66868;42.708;23.404;2023-04-24T09:40:26;94741.00;;;20.13;46.41
77702;BME280;66868;42.708;23.404;2023-04-24T09:42:52;94730.91;;;20.20;45.48
77702;BME280;66868;42.708;23.404;2023-04-24T09:45:18;94741.88;;;20.30;44.49
77702;BME280;66868;42.708;23.404;2023-04-24T09:47:44;94728.97;;;20.22;44.19
77702;BME280;66868;42.708;23.404;2023-04-24T09:50:11;94747.00;;;20.30;44.21
77702;BME280;66868;42.708;23.404;2023-04-24T09:52:40;94738.97;;;20.25;43.51
77702;BME280;66868;42.708;23.404;2023-04-24T09:55:19;94727.06;;;20.24;43.18
77702;BME280;66868;42.708;23.404;2023-04-24T09:57:49;94741.88;;;20.30;44.63
77702;BME280;66868;42.708;23.404;2023-04-24T10:00:22;94724.78;;;20.21;43.01
77702;BME280;66868;42.708;23.404;2023-04-24T10:02:59;94735.78;;;20.31;41.69
77702;BME280;66868;42.708;23.404;2023-04-24T10:05:42;94722.78;;;20.33;42.29
77702;BME280;66868;42.708;23.404;2023-04-24T10:08:11;94722.22;;;20.21;43.14
77702;BME280;66868;42.708;23.404;2023-04-24T10:10:43;94720.31;;;20.23;44.30
77702;BME280;66868;42.708;23.404;2023-04-24T10:13:09;94716.59;;;20.25;44.70
77702;BME280;66868;42.708;23.404;2023-04-24T10:15:36;94708.78;;;20.35;43.73
77702;BME280;66868;42.708;23.404;2023-04-24T10:18:04;94708.50;;;20.46;41.92
77702;BME280;66868;42.708;23.404;2023-04-24T10:20:31;94708.00;;;20.51;41.68
77702;BME280;66868;42.708;23.404;2023-04-24T10:22:59;94698.53;;;20.59;42.37
77702;BME280;66868;42.708;23.404;2023-04-24T10:25:35;94689.84;;;20.68;43.01
77702;BME280;66868;42.708;23.404;2023-04-24T10:28:02;94697.88;;;20.82;41.19
77702;BME280;66868;42.708;23.404;2023-04-24T10:30:30;94694.97;;;20.93;40.84
77702;BME280;66868;42.708;23.404;2023-04-24T10:33:00;94695.59;;;20.95;40.35
77702;BME280;66868;42.708;23.404;2023-04-24T10:35:25;94696.38;;;21.11;38.70
77702;BME280;66868;42.708;23.404;2023-04-24T10:38:03;94698.16;;;21.19;38.82
77702;BME280;66868;42.708;23.404;2023-04-24T10:40:34;94683.06;;;21.16;38.88
77702;BME280;66868;42.708;23.404;2023-04-24T10:43:02;94680.13;;;21.27;38.18
77702;BME280;66868;42.708;23.404;2023-04-24T10:45:30;94695.38;;;21.37;37.60
77702;BME280;66868;42.708;23.404;2023-04-24T10:48:08;94684.88;;;21.46;37.37
77702;BME280;66868;42.708;23.404;2023-04-24T10:50:56;94679.66;;;21.71;37.69
77702;BME280;66868;42.708;23.404;2023-04-24T10:53:24;94608.41;;;21.47;38.15
77702;BME280;66868;42.708;23.404;2023-04-24T10:56:12;94674.09;;;22.21;37.97
77702;BME280;66868;42.708;23.404;2023-04-24T10:58:51;94667.66;;;22.39;38.70
77702;BME280;66868;42.708;23.404;2023-04-24T11:01:37;94667.34;;;22.57;36.44
77702;BME280;66868;42.708;23.404;2023-04-24T11:04:03;94666.31;;;22.66;35.14
77702;BME280;66868;42.708;23.404;2023-04-24T11:06:32;94624.75;;;22.61;36.28
77702;BME280;66868;42.708;23.404;2023-04-24T11:09:07;94652.81;;;23.02;35.86
77702;BME280;66868;42.708;23.404;2023-04-24T11:11:35;94661.44;;;23.23;34.20
77702;BME280;66868;42.708;23.404;2023-04-24T11:14:03;94654.69;;;23.22;34.99
77702;BME280;66868;42.708;23.404;2023-04-24T11:16:42;94662.44;;;23.22;35.28
77702;BME280;66868;42.708;23.404;2023-04-24T11:19:26;94651.75;;;23.11;35.04
77702;BME280;66868;42.708;23.404;2023-04-24T11:22:01;94643.72;;;22.91;35.67
77702;BME280;66868;42.708;23.404;2023-04-24T11:27:13;94647.25;;;22.53;36.54
77702;BME280;66868;42.708;23.404;2023-04-24T11:29:45;94645.59;;;22.37;34.82
77702;BME280;66868;42.708;23.404;2023-04-24T11:34:40;94662.81;;;21.13;37.61
77702;BME280;66868;42.708;23.404;2023-04-24T11:37:05;94693.16;;;21.09;47.34
77702;BME280;66868;42.708;23.404;2023-04-24T11:39:36;94699.47;;;20.34;54.16
77702;BME280;66868;42.708;23.404;2023-04-24T11:42:02;94712.06;;;19.27;55.48
77702;BME280;66868;42.708;23.404;2023-04-24T11:44:29;94693.66;;;18.27;58.04
77702;BME280;66868;42.708;23.404;2023-04-24T11:46:56;94684.97;;;18.02;59.62
77702;BME280;66868;42.708;23.404;2023-04-24T11:49:21;94680.28;;;18.33;61.09
77702;BME280;66868;42.708;23.404;2023-04-24T11:51:47;94665.28;;;18.82;59.42
77702;BME280;66868;42.708;23.404;2023-04-24T11:54:12;94663.53;;;19.42;68.68
77702;BME280;66868;42.708;23.404;2023-04-24T11:56:38;94665.19;;;20.01;63.51
77702;BME280;66868;42.708;23.404;2023-04-24T11:59:04;94662.66;;;20.58;61.31
77702;BME280;66868;42.708;23.404;2023-04-24T12:01:29;94660.31;;;21.36;60.36
77702;BME280;66868;42.708;23.404;2023-04-24T12:03:59;94662.91;;;22.06;53.40
77702;BME280;66868;42.708;23.404;2023-04-24T12:06:25;94658.47;;;22.60;47.93
77702;BME280;66868;42.708;23.404;2023-04-24T12:08:52;94654.19;;;22.75;47.04
77702;BME280;66868;42.708;23.404;2023-04-24T12:11:17;94650.09;;;22.80;48.36
77702;BME280;66868;42.708;23.404;2023-04-24T12:13:43;94638.97;;;22.80;44.94
77702;BME280;66868;42.708;23.404;2023-04-24T12:16:09;94637.81;;;22.82;43.38
77702;BME280;66868;42.708;23.404;2023-04-24T12:18:41;94597.34;;;22.60;41.33
77702;BME280;66868;42.708;23.404;2023-04-24T12:21:16;94640.25;;;22.84;40.69
77702;BME280;66868;42.708;23.404;2023-04-24T12:23:43;94637.09;;;22.74;42.31
77702;BME280;66868;42.708;23.404;2023-04-24T12:26:10;94627.06;;;22.56;39.63
77702;BME280;66868;42.708;23.404;2023-04-24T12:28:36;94619.53;;;22.32;40.44
77702;BME280;66868;42.708;23.404;2023-04-24T12:31:02;94613.91;;;22.28;40.33
77702;BME280;66868;42.708;23.404;2023-04-24T12:33:27;94599.22;;;22.06;40.09
77702;BME280;66868;42.708;23.404;2023-04-24T12:35:57;94573.56;;;21.90;39.63
77702;BME280;66868;42.708;23.404;2023-04-24T12:38:25;94610.16;;;21.85;40.43
77702;BME280;66868;42.708;23.404;2023-04-24T12:41:06;94605.69;;;21.48;40.86
77702;BME280;66868;42.708;23.404;2023-04-24T12:43:31;94600.00;;;21.22;40.93
77702;BME280;66868;42.708;23.404;2023-04-24T12:45:57;94593.31;;;20.89;42.47
77702;BME280;66868;42.708;23.404;2023-04-24T12:48:24;94581.13;;;20.75;43.61
77702;BME280;66868;42.708;23.404;2023-04-24T12:50:50;94556.53;;;20.72;44.37
77702;BME280;66868;42.708;23.404;2023-04-24T12:53:15;94573.34;;;20.91;43.68